sensor_id;sensor_type;location;lat;lon;timestamp;P1;durP1;ratioP1;P2;durP2;ratioP2
40621;SDS011;26324;52.040;11.528;2023-06-01T00:05:16;2.15;;;1.10;;
40621;SDS011;26324;52.040;11.528;2023-06-01T00:07:44;2.45;;;1.00;;
40621;SDS011;26324;52.040;11.528;2023-06-01T00:10:12;2.25;;;0.80;;
40621;SDS011;26324;52.040;11.528;2023-06-01T00:12:39;1.33;;;0.75;;
40621;SDS011;26324;52.040;11.528;2023-06-01T00:15:07;1.30;;;0.80;;
40621;SDS011;26324;52.040;11.528;2023-06-01T00:17:34;2.97;;;1.10;;
40621;SDS011;26324;52.040;11.528;2023-06-01T00:20:02;2.25;;;0.73;;
40621;SDS011;26324;52.040;11.528;2023-06-01T00:22:36;3.83;;;1.00;;
40621;SDS011;26324;52.040;11.528;2023-06-01T00:25:07;2.78;;;1.30;;
40621;SDS011;26324;52.040;11.528;2023-06-01T00:27:35;3.65;;;1.17;;
40621;SDS011;26324;52.040;11.528;2023-06-01T00:30:03;2.35;;;1.10;;
40621;SDS011;26324;52.040;11.528;2023-06-01T00:32:31;3.13;;;0.80;;
40621;SDS011;26324;52.040;11.528;2023-06-01T00:34:59;5.50;;;0.90;;
40621;SDS011;26324;52.040;11.528;2023-06-01T00:37:26;4.28;;;1.20;;
40621;SDS011;26324;52.040;11.528;2023-06-01T00:39:55;2.40;;;1.30;;
40621;SDS011;26324;52.040;11.528;2023-06-01T00:42:23;1.85;;;0.98;;
40621;SDS011;26324;52.040;11.528;2023-06-01T00:44:50;2.13;;;1.17;;
40621;SDS011;26324;52.040;11.528;2023-06-01T00:47:20;1.67;;;1.00;;
40621;SDS011;26324;52.040;11.528;2023-06-01T00:49:48;2.03;;;1.10;;
40621;SDS011;26324;52.040;11.528;2023-06-01T00:52:15;2.08;;;0.60;;
40621;SDS011;26324;52.040;11.528;2023-06-01T00:54:43;1.88;;;0.80;;
40621;SDS011;26324;52.040;11.528;2023-06-01T00:57:11;4.03;;;1.38;;
40621;SDS011;26324;52.040;11.528;2023-06-01T00:59:38;2.35;;;0.82;;
40621;SDS011;26324;52.040;11.528;2023-06-01T01:02:06;4.70;;;1.08;;
40621;SDS011;26324;52.040;11.528;2023-06-01T01:04:35;2.75;;;1.00;;
40621;SDS011;26324;52.040;11.528;2023-06-01T01:10:04;2.15;;;0.95;;
40621;SDS011;26324;52.040;11.528;2023-06-01T01:12:43;2.70;;;0.90;;
40621;SDS011;26324;52.040;11.528;2023-06-01T01:18:07;2.10;;;0.75;;
40621;SDS011;26324;52.040;11.528;2023-06-01T01:20:44;3.63;;;1.38;;
40621;SDS011;26324;52.040;11.528;2023-06-01T01:23:38;2.38;;;1.20;;
40621;SDS011;26324;52.040;11.528;2023-06-01T01:26:23;4.82;;;1.00;;
40621;SDS011;26324;52.040;11.528;2023-06-01T01:29:06;3.35;;;1.33;;
40621;SDS011;26324;52.040;11.528;2023-06-01T01:31:36;1.65;;;0.85;;
40621;SDS011;26324;52.040;11.528;2023-06-01T01:34:07;2.95;;;1.60;;
40621;SDS011;26324;52.040;11.528;2023-06-01T01:36:36;2.13;;;1.20;;
40621;SDS011;26324;52.040;11.528;2023-06-01T01:39:04;2.08;;;0.90;;
40621;SDS011;26324;52.040;11.528;2023-06-01T01:41:32;3.45;;;1.40;;
40621;SDS011;26324;52.040;11.528;2023-06-01T01:44:00;3.85;;;1.40;;
40621;SDS011;26324;52.040;11.528;2023-06-01T01:46:28;4.32;;;1.25;;
40621;SDS011;26324;52.040;11.528;2023-06-01T01:49:04;4.40;;;1.40;;
40621;SDS011;26324;52.040;11.528;2023-06-01T01:51:41;4.65;;;1.10;;
40621;SDS011;26324;52.040;11.528;2023-06-01T01:54:16;3.72;;;1.40;;
40621;SDS011;26324;52.040;11.528;2023-06-01T01:56:45;2.35;;;1.05;;
40621;SDS011;26324;52.040;11.528;2023-06-01T01:59:13;6.82;;;1.50;;
40621;SDS011;26324;52.040;11.528;2023-06-01T02:01:42;2.97;;;1.33;;
40621;SDS011;26324;52.040;11.528;2023-06-01T02:04:12;4.15;;;1.20;;
40621;SDS011;26324;52.040;11.528;2023-06-01T02:06:40;4.05;;;1.20;;
40621;SDS011;26324;52.040;11.528;2023-06-01T02:09:07;3.17;;;1.15;;
40621;SDS011;26324;52.040;11.528;2023-06-01T02:11:36;2.47;;;1.35;;
40621;SDS011;26324;52.040;11.528;2023-06-01T02:14:04;2.05;;;1.15;;
40621;SDS011;26324;52.040;11.528;2023-06-01T02:16:32;3.30;;;1.25;;
40621;SDS011;26324;52.040;11.528;2023-06-01T02:18:59;6.53;;;1.58;;
40621;SDS011;26324;52.040;11.528;2023-06-01T02:21:28;3.53;;;1.63;;
40621;SDS011;26324;52.040;11.528;2023-06-01T02:24:00;4.93;;;1.77;;
40621;SDS011;26324;52.040;11.528;2023-06-01T02:26:31;4.50;;;1.33;;
40621;SDS011;26324;52.040;11.528;2023-06-01T02:28:59;5.28;;;1.60;;
40621;SDS011;26324;52.040;11.528;2023-06-01T02:31:29;2.42;;;1.30;;
40621;SDS011;26324;52.040;11.528;2023-06-01T02:33:57;9.95;;;2.03;;
40621;SDS011;26324;52.040;11.528;2023-06-01T02:36:27;6.68;;;2.10;;
40621;SDS011;26324;52.040;11.528;2023-06-01T02:38:55;5.68;;;2.00;;
40621;SDS011;26324;52.040;11.528;2023-06-01T02:41:23;6.65;;;1.80;;
40621;SDS011;26324;52.040;11.528;2023-06-01T02:43:51;4.38;;;1.52;;
40621;SDS011;26324;52.040;11.528;2023-06-01T02:46:19;5.13;;;1.55;;
40621;SDS011;26324;52.040;11.528;2023-06-01T02:48:47;3.85;;;1.70;;
40621;SDS011;26324;52.040;11.528;2023-06-01T02:51:16;4.10;;;1.80;;
40621;SDS011;26324;52.040;11.528;2023-06-01T02:53:48;4.60;;;2.17;;
40621;SDS011;26324;52.040;11.528;2023-06-01T02:56:17;6.38;;;1.95;;
40621;SDS011;26324;52.040;11.528;2023-06-01T02:59:17;3.25;;;1.55;;
40621;SDS011;26324;52.040;11.528;2023-06-01T03:01:59;7.25;;;1.92;;
40621;SDS011;26324;52.040;11.528;2023-06-01T03:04:27;4.93;;;2.08;;
40621;SDS011;26324;52.040;11.528;2023-06-01T03:06:57;6.22;;;2.20;;
40621;SDS011;26324;52.040;11.528;2023-06-01T03:09:46;4.43;;;1.77;;
40621;SDS011;26324;52.040;11.528;2023-06-01T03:12:33;5.25;;;2.42;;
40621;SDS011;26324;52.040;11.528;2023-06-01T03:15:00;9.15;;;2.70;;
40621;SDS011;26324;52.040;11.528;2023-06-01T03:17:28;4.45;;;2.10;;
40621;SDS011;26324;52.040;11.528;2023-06-01T03:19:56;6.38;;;2.97;;
40621;SDS011;26324;52.040;11.528;2023-06-01T03:22:24;8.05;;;2.42;;
40621;SDS011;26324;52.040;11.528;2023-06-01T03:24:52;4.85;;;2.53;;
40621;SDS011;26324;52.040;11.528;2023-06-01T03:27:26;5.38;;;2.60;;
40621;SDS011;26324;52.040;11.528;2023-06-01T03:29:53;8.07;;;2.85;;
40621;SDS011;26324;52.040;11.528;2023-06-01T03:32:21;8.20;;;2.70;;
40621;SDS011;26324;52.040;11.528;2023-06-01T03:34:50;12.07;;;3.45;;
40621;SDS011;26324;52.040;11.528;2023-06-01T03:37:18;6.47;;;2.80;;
40621;SDS011;26324;52.040;11.528;2023-06-01T03:39:47;8.73;;;2.90;;
40621;SDS011;26324;52.040;11.528;2023-06-01T03:42:15;5.25;;;2.67;;
40621;SDS011;26324;52.040;11.528;2023-06-01T03:44:42;7.85;;;2.72;;
40621;SDS011;26324;52.040;11.528;2023-06-01T03:47:10;8.13;;;2.95;;
40621;SDS011;26324;52.040;11.528;2023-06-01T03:49:37;8.55;;;3.15;;
40621;SDS011;26324;52.040;11.528;2023-06-01T03:52:08;6.47;;;2.40;;
40621;SDS011;26324;52.040;11.528;2023-06-01T03:54:36;5.78;;;2.50;;
40621;SDS011;26324;52.040;11.528;2023-06-01T03:57:10;5.95;;;2.72;;
40621;SDS011;26324;52.040;11.528;2023-06-01T03:59:38;6.30;;;3.10;;
40621;SDS011;26324;52.040;11.528;2023-06-01T04:02:05;5.18;;;2.45;;
40621;SDS011;26324;52.040;11.528;2023-06-01T04:04:36;5.47;;;2.70;;
40621;SDS011;26324;52.040;11.528;2023-06-01T04:07:03;4.78;;;2.47;;
40621;SDS011;26324;52.040;11.528;2023-06-01T04:09:31;7.28;;;2.60;;
40621;SDS011;26324;52.040;11.528;2023-06-01T04:11:59;8.93;;;3.47;;
40621;SDS011;26324;52.040;11.528;2023-06-01T04:14:26;5.13;;;2.80;;
40621;SDS011;26324;52.040;11.528;2023-06-01T04:16:54;4.85;;;2.55;;
40621;SDS011;26324;52.040;11.528;2023-06-01T04:19:22;5.90;;;3.33;;
40621;SDS011;26324;52.040;11.528;2023-06-01T04:21:56;8.07;;;2.20;;
40621;SDS011;26324;52.040;11.528;2023-06-01T04:24:24;8.93;;;3.00;;
40621;SDS011;26324;52.040;11.528;2023-06-01T04:26:51;10.13;;;2.78;;
40621;SDS011;26324;52.040;11.528;2023-06-01T04:29:19;7.90;;;2.75;;
40621;SDS011;26324;52.040;11.528;2023-06-01T04:31:48;5.75;;;2.70;;
40621;SDS011;26324;52.040;11.528;2023-06-01T04:34:15;6.40;;;2.50;;
40621;SDS011;26324;52.040;11.528;2023-06-01T04:36:43;6.88;;;3.28;;
40621;SDS011;26324;52.040;11.528;2023-06-01T04:39:11;5.85;;;2.55;;
40621;SDS011;26324;52.040;11.528;2023-06-01T04:41:39;11.45;;;2.70;;
40621;SDS011;26324;52.040;11.528;2023-06-01T04:44:06;9.85;;;3.03;;
40621;SDS011;26324;52.040;11.528;2023-06-01T04:46:35;6.82;;;2.30;;
40621;SDS011;26324;52.040;11.528;2023-06-01T04:49:07;7.28;;;3.08;;
40621;SDS011;26324;52.040;11.528;2023-06-01T04:51:35;6.53;;;2.80;;
40621;SDS011;26324;52.040;11.528;2023-06-01T04:54:03;5.75;;;2.78;;
40621;SDS011;26324;52.040;11.528;2023-06-01T04:56:32;8.70;;;2.72;;
40621;SDS011;26324;52.040;11.528;2023-06-01T04:58:59;6.72;;;3.17;;
40621;SDS011;26324;52.040;11.528;2023-06-01T05:01:29;6.57;;;3.33;;
40621;SDS011;26324;52.040;11.528;2023-06-01T05:03:57;7.90;;;2.47;;
40621;SDS011;26324;52.040;11.528;2023-06-01T05:06:26;6.35;;;2.80;;
40621;SDS011;26324;52.040;11.528;2023-06-01T05:08:54;7.20;;;2.75;;
40621;SDS011;26324;52.040;11.528;2023-06-01T05:11:22;12.00;;;3.42;;
40621;SDS011;26324;52.040;11.528;2023-06-01T05:13:50;7.10;;;3.78;;
40621;SDS011;26324;52.040;11.528;2023-06-01T05:16:24;5.55;;;3.28;;
40621;SDS011;26324;52.040;11.528;2023-06-01T05:18:54;5.40;;;2.40;;
40621;SDS011;26324;52.040;11.528;2023-06-01T05:21:23;6.18;;;2.75;;
40621;SDS011;26324;52.040;11.528;2023-06-01T05:23:51;6.25;;;2.25;;
40621;SDS011;26324;52.040;11.528;2023-06-01T05:26:19;7.75;;;2.95;;
40621;SDS011;26324;52.040;11.528;2023-06-01T05:28:49;7.30;;;3.17;;
40621;SDS011;26324;52.040;11.528;2023-06-01T05:31:16;9.95;;;3.30;;
40621;SDS011;26324;52.040;11.528;2023-06-01T05:33:48;5.72;;;2.65;;
40621;SDS011;26324;52.040;11.528;2023-06-01T05:36:18;9.23;;;3.90;;
40621;SDS011;26324;52.040;11.528;2023-06-01T05:38:46;7.85;;;3.38;;
40621;SDS011;26324;52.040;11.528;2023-06-01T05:41:13;8.18;;;3.00;;
40621;SDS011;26324;52.040;11.528;2023-06-01T05:43:46;11.02;;;3.10;;
40621;SDS011;26324;52.040;11.528;2023-06-01T05:46:24;6.82;;;2.72;;
40621;SDS011;26324;52.040;11.528;2023-06-01T05:49:04;6.57;;;2.85;;
40621;SDS011;26324;52.040;11.528;2023-06-01T05:51:40;4.28;;;1.92;;
40621;SDS011;26324;52.040;11.528;2023-06-01T05:54:09;4.60;;;2.30;;
40621;SDS011;26324;52.040;11.528;2023-06-01T05:56:37;6.28;;;2.92;;
40621;SDS011;26324;52.040;11.528;2023-06-01T05:59:06;7.20;;;2.75;;
40621;SDS011;26324;52.040;11.528;2023-06-01T06:01:34;5.95;;;2.53;;
40621;SDS011;26324;52.040;11.528;2023-06-01T06:04:03;8.45;;;2.95;;
40621;SDS011;26324;52.040;11.528;2023-06-01T06:06:30;8.00;;;3.15;;
40621;SDS011;26324;52.040;11.528;2023-06-01T06:08:58;10.70;;;3.50;;
40621;SDS011;26324;52.040;11.528;2023-06-01T06:11:26;7.90;;;3.22;;
40621;SDS011;26324;52.040;11.528;2023-06-01T06:13:53;7.38;;;3.35;;
40621;SDS011;26324;52.040;11.528;2023-06-01T06:16:21;9.00;;;3.00;;
40621;SDS011;26324;52.040;11.528;2023-06-01T06:18:48;9.57;;;3.50;;
40621;SDS011;26324;52.040;11.528;2023-06-01T06:21:15;7.18;;;2.70;;
40621;SDS011;26324;52.040;11.528;2023-06-01T06:23:45;5.82;;;2.72;;
40621;SDS011;26324;52.040;11.528;2023-06-01T06:26:13;6.88;;;2.72;;
40621;SDS011;26324;52.040;11.528;2023-06-01T06:28:40;6.00;;;2.58;;
40621;SDS011;26324;52.040;11.528;2023-06-01T06:31:07;6.07;;;2.38;;
40621;SDS011;26324;52.040;11.528;2023-06-01T06:33:35;7.88;;;3.05;;
40621;SDS011;26324;52.040;11.528;2023-06-01T06:36:02;5.55;;;2.75;;
40621;SDS011;26324;52.040;11.528;2023-06-01T06:38:30;10.88;;;3.42;;
40621;SDS011;26324;52.040;11.528;2023-06-01T06:40:57;9.15;;;3.33;;
40621;SDS011;26324;52.040;11.528;2023-06-01T06:43:25;4.95;;;2.58;;
40621;SDS011;26324;52.040;11.528;2023-06-01T06:45:53;8.00;;;3.08;;
40621;SDS011;26324;52.040;11.528;2023-06-01T06:48:20;6.93;;;3.67;;
40621;SDS011;26324;52.040;11.528;2023-06-01T06:50:47;5.55;;;2.72;;
40621;SDS011;26324;52.040;11.528;2023-06-01T06:53:14;8.07;;;3.05;;
40621;SDS011;26324;52.040;11.528;2023-06-01T06:55:42;8.50;;;3.67;;
40621;SDS011;26324;52.040;11.528;2023-06-01T06:58:10;7.97;;;3.60;;
40621;SDS011;26324;52.040;11.528;2023-06-01T07:00:38;6.55;;;2.70;;
40621;SDS011;26324;52.040;11.528;2023-06-01T07:03:05;6.30;;;2.60;;
40621;SDS011;26324;52.040;11.528;2023-06-01T07:05:33;7.13;;;2.95;;
40621;SDS011;26324;52.040;11.528;2023-06-01T07:08:00;6.18;;;2.25;;
40621;SDS011;26324;52.040;11.528;2023-06-01T07:10:28;7.38;;;2.83;;
40621;SDS011;26324;52.040;11.528;2023-06-01T07:12:56;8.25;;;3.03;;
40621;SDS011;26324;52.040;11.528;2023-06-01T07:15:24;7.53;;;3.30;;
40621;SDS011;26324;52.040;11.528;2023-06-01T07:17:51;6.97;;;3.00;;
40621;SDS011;26324;52.040;11.528;2023-06-01T07:20:19;9.20;;;3.53;;
40621;SDS011;26324;52.040;11.528;2023-06-01T07:22:46;10.52;;;3.38;;
40621;SDS011;26324;52.040;11.528;2023-06-01T07:25:14;5.95;;;2.72;;
40621;SDS011;26324;52.040;11.528;2023-06-01T07:27:42;4.57;;;2.70;;
40621;SDS011;26324;52.040;11.528;2023-06-01T07:30:10;5.10;;;2.67;;
40621;SDS011;26324;52.040;11.528;2023-06-01T07:32:39;6.68;;;2.65;;
40621;SDS011;26324;52.040;11.528;2023-06-01T07:35:07;4.15;;;2.22;;
40621;SDS011;26324;52.040;11.528;2023-06-01T07:37:35;7.03;;;3.65;;
40621;SDS011;26324;52.040;11.528;2023-06-01T07:40:02;8.05;;;2.63;;
40621;SDS011;26324;52.040;11.528;2023-06-01T07:42:34;6.82;;;3.08;;
40621;SDS011;26324;52.040;11.528;2023-06-01T07:45:02;5.85;;;2.70;;
40621;SDS011;26324;52.040;11.528;2023-06-01T07:47:29;6.47;;;2.40;;
40621;SDS011;26324;52.040;11.528;2023-06-01T07:49:57;7.43;;;3.05;;
40621;SDS011;26324;52.040;11.528;2023-06-01T07:52:24;6.65;;;2.67;;
40621;SDS011;26324;52.040;11.528;2023-06-01T07:54:51;8.93;;;2.75;;
40621;SDS011;26324;52.040;11.528;2023-06-01T07:57:19;6.20;;;2.42;;
40621;SDS011;26324;52.040;11.528;2023-06-01T07:59:46;8.38;;;2.15;;
40621;SDS011;26324;52.040;11.528;2023-06-01T08:02:14;8.45;;;2.38;;
40621;SDS011;26324;52.040;11.528;2023-06-01T08:04:41;6.97;;;3.17;;
40621;SDS011;26324;52.040;11.528;2023-06-01T08:07:09;7.97;;;3.53;;
40621;SDS011;26324;52.040;11.528;2023-06-01T08:09:39;9.07;;;3.67;;
40621;SDS011;26324;52.040;11.528;2023-06-01T08:12:06;10.43;;;3.10;;
40621;SDS011;26324;52.040;11.528;2023-06-01T08:14:34;7.47;;;3.03;;
40621;SDS011;26324;52.040;11.528;2023-06-01T08:17:02;6.28;;;2.75;;
40621;SDS011;26324;52.040;11.528;2023-06-01T08:19:30;7.68;;;3.28;;
40621;SDS011;26324;52.040;11.528;2023-06-01T08:21:58;9.25;;;2.83;;
40621;SDS011;26324;52.040;11.528;2023-06-01T08:24:26;8.05;;;2.80;;
40621;SDS011;26324;52.040;11.528;2023-06-01T08:26:54;6.35;;;3.70;;
40621;SDS011;26324;52.040;11.528;2023-06-01T08:29:26;5.22;;;2.55;;
40621;SDS011;26324;52.040;11.528;2023-06-01T08:32:09;8.65;;;3.22;;
40621;SDS011;26324;52.040;11.528;2023-06-01T08:34:39;4.93;;;2.50;;
40621;SDS011;26324;52.040;11.528;2023-06-01T08:37:09;6.20;;;2.72;;
40621;SDS011;26324;52.040;11.528;2023-06-01T08:39:39;6.43;;;2.85;;
40621;SDS011;26324;52.040;11.528;2023-06-01T08:42:13;9.45;;;3.03;;
40621;SDS011;26324;52.040;11.528;2023-06-01T08:44:54;6.53;;;2.25;;
40621;SDS011;26324;52.040;11.528;2023-06-01T08:47:25;5.65;;;2.30;;
40621;SDS011;26324;52.040;11.528;2023-06-01T08:49:53;6.90;;;2.50;;
40621;SDS011;26324;52.040;11.528;2023-06-01T08:52:22;8.20;;;2.63;;
40621;SDS011;26324;52.040;11.528;2023-06-01T08:54:55;7.60;;;3.33;;
40621;SDS011;26324;52.040;11.528;2023-06-01T08:57:26;5.65;;;2.55;;
40621;SDS011;26324;52.040;11.528;2023-06-01T08:59:58;6.40;;;2.88;;
40621;SDS011;26324;52.040;11.528;2023-06-01T09:02:35;4.53;;;2.58;;
40621;SDS011;26324;52.040;11.528;2023-06-01T09:05:08;6.07;;;2.35;;
40621;SDS011;26324;52.040;11.528;2023-06-01T09:07:41;8.38;;;2.30;;
40621;SDS011;26324;52.040;11.528;2023-06-01T09:10:11;5.20;;;2.22;;
40621;SDS011;26324;52.040;11.528;2023-06-01T09:12:57;3.70;;;2.08;;
40621;SDS011;26324;52.040;11.528;2023-06-01T09:16:01;7.05;;;2.58;;
40621;SDS011;26324;52.040;11.528;2023-06-01T09:18:56;5.40;;;2.38;;
40621;SDS011;26324;52.040;11.528;2023-06-01T09:21:40;7.78;;;3.00;;
40621;SDS011;26324;52.040;11.528;2023-06-01T09:24:47;6.18;;;2.22;;
40621;SDS011;26324;52.040;11.528;2023-06-01T09:27:52;8.25;;;3.05;;
40621;SDS011;26324;52.040;11.528;2023-06-01T09:30:42;8.93;;;2.60;;
40621;SDS011;26324;52.040;11.528;2023-06-01T09:33:29;4.07;;;2.42;;
40621;SDS011;26324;52.040;11.528;2023-06-01T09:39:06;6.85;;;2.83;;
40621;SDS011;26324;52.040;11.528;2023-06-01T09:41:55;6.97;;;2.58;;
40621;SDS011;26324;52.040;11.528;2023-06-01T09:44:45;6.60;;;3.20;;
40621;SDS011;26324;52.040;11.528;2023-06-01T09:47:17;5.53;;;2.22;;
40621;SDS011;26324;52.040;11.528;2023-06-01T09:50:05;5.97;;;2.50;;
40621;SDS011;26324;52.040;11.528;2023-06-01T09:53:02;4.72;;;2.30;;
40621;SDS011;26324;52.040;11.528;2023-06-01T09:55:59;3.40;;;1.65;;
40621;SDS011;26324;52.040;11.528;2023-06-01T09:58:46;5.82;;;2.50;;
40621;SDS011;26324;52.040;11.528;2023-06-01T10:01:38;5.22;;;1.88;;
40621;SDS011;26324;52.040;11.528;2023-06-01T10:04:28;8.50;;;2.47;;
40621;SDS011;26324;52.040;11.528;2023-06-01T10:07:17;3.83;;;2.03;;
40621;SDS011;26324;52.040;11.528;2023-06-01T10:10:05;4.57;;;2.22;;
40621;SDS011;26324;52.040;11.528;2023-06-01T10:12:44;3.92;;;1.70;;
40621;SDS011;26324;52.040;11.528;2023-06-01T10:15:29;4.65;;;2.00;;
40621;SDS011;26324;52.040;11.528;2023-06-01T10:18:16;5.80;;;1.90;;
40621;SDS011;26324;52.040;11.528;2023-06-01T10:20:54;6.10;;;2.25;;
40621;SDS011;26324;52.040;11.528;2023-06-01T10:23:39;5.53;;;2.00;;
40621;SDS011;26324;52.040;11.528;2023-06-01T10:26:20;4.25;;;1.85;;
40621;SDS011;26324;52.040;11.528;2023-06-01T10:28:56;3.17;;;1.55;;
40621;SDS011;26324;52.040;11.528;2023-06-01T10:31:41;3.90;;;2.10;;
40621;SDS011;26324;52.040;11.528;2023-06-01T10:34:38;3.47;;;2.05;;
40621;SDS011;26324;52.040;11.528;2023-06-01T10:37:23;5.78;;;1.98;;
40621;SDS011;26324;52.040;11.528;2023-06-01T10:39:53;4.40;;;1.73;;
40621;SDS011;26324;52.040;11.528;2023-06-01T10:42:49;5.18;;;2.17;;
40621;SDS011;26324;52.040;11.528;2023-06-01T10:48:15;4.93;;;2.05;;
40621;SDS011;26324;52.040;11.528;2023-06-01T10:50:42;4.25;;;2.40;;
40621;SDS011;26324;52.040;11.528;2023-06-01T10:53:30;3.90;;;1.73;;
40621;SDS011;26324;52.040;11.528;2023-06-01T10:58:44;3.38;;;1.35;;
40621;SDS011;26324;52.040;11.528;2023-06-01T11:01:19;4.13;;;1.60;;
40621;SDS011;26324;52.040;11.528;2023-06-01T11:03:48;5.50;;;2.25;;
40621;SDS011;26324;52.040;11.528;2023-06-01T11:06:24;5.30;;;2.03;;
40621;SDS011;26324;52.040;11.528;2023-06-01T11:08:59;4.40;;;2.20;;
40621;SDS011;26324;52.040;11.528;2023-06-01T11:14:23;6.03;;;1.95;;
40621;SDS011;26324;52.040;11.528;2023-06-01T11:16:52;3.97;;;2.25;;
40621;SDS011;26324;52.040;11.528;2023-06-01T11:19:21;3.50;;;1.92;;
40621;SDS011;26324;52.040;11.528;2023-06-01T11:21:55;3.90;;;2.05;;
40621;SDS011;26324;52.040;11.528;2023-06-01T11:24:34;3.90;;;1.70;;
40621;SDS011;26324;52.040;11.528;2023-06-01T11:27:06;6.07;;;2.42;;
40621;SDS011;26324;52.040;11.528;2023-06-01T11:29:35;4.85;;;2.10;;
40621;SDS011;26324;52.040;11.528;2023-06-01T11:32:04;4.72;;;2.30;;
40621;SDS011;26324;52.040;11.528;2023-06-01T11:34:33;7.20;;;2.15;;
40621;SDS011;26324;52.040;11.528;2023-06-01T11:37:06;4.85;;;2.17;;
40621;SDS011;26324;52.040;11.528;2023-06-01T11:39:45;4.35;;;2.20;;
40621;SDS011;26324;52.040;11.528;2023-06-01T11:42:19;3.70;;;2.10;;
40621;SDS011;26324;52.040;11.528;2023-06-01T11:44:56;4.63;;;2.15;;
40621;SDS011;26324;52.040;11.528;2023-06-01T11:47:28;5.85;;;2.15;;
40621;SDS011;26324;52.040;11.528;2023-06-01T11:50:00;7.07;;;2.60;;
40621;SDS011;26324;52.040;11.528;2023-06-01T11:52:27;6.18;;;2.30;;
40621;SDS011;26324;52.040;11.528;2023-06-01T11:55:01;6.00;;;1.92;;
40621;SDS011;26324;52.040;11.528;2023-06-01T11:57:29;4.50;;;2.45;;
40621;SDS011;26324;52.040;11.528;2023-06-01T11:59:56;6.93;;;2.50;;
40621;SDS011;26324;52.040;11.528;2023-06-01T12:02:27;6.93;;;3.15;;
40621;SDS011;26324;52.040;11.528;2023-06-01T12:05:06;3.97;;;2.17;;
40621;SDS011;26324;52.040;11.528;2023-06-01T12:10:13;6.13;;;2.53;;
40621;SDS011;26324;52.040;11.528;2023-06-01T12:12:43;9.40;;;2.42;;
40621;SDS011;26324;52.040;11.528;2023-06-01T12:15:11;6.85;;;2.70;;
40621;SDS011;26324;52.040;11.528;2023-06-01T12:17:50;6.20;;;2.50;;
40621;SDS011;26324;52.040;11.528;2023-06-01T12:20:25;5.03;;;2.55;;
40621;SDS011;26324;52.040;11.528;2023-06-01T12:23:24;5.50;;;2.00;;
40621;SDS011;26324;52.040;11.528;2023-06-01T12:25:51;5.30;;;2.20;;
40621;SDS011;26324;52.040;11.528;2023-06-01T12:28:21;6.47;;;2.35;;
40621;SDS011;26324;52.040;11.528;2023-06-01T12:30:49;6.30;;;2.63;;
40621;SDS011;26324;52.040;11.528;2023-06-01T12:33:34;6.53;;;2.30;;
40621;SDS011;26324;52.040;11.528;2023-06-01T12:36:03;5.70;;;2.10;;
40621;SDS011;26324;52.040;11.528;2023-06-01T12:38:36;6.72;;;2.47;;
40621;SDS011;26324;52.040;11.528;2023-06-01T12:41:11;4.65;;;2.15;;
40621;SDS011;26324;52.040;11.528;2023-06-01T12:46:17;5.20;;;2.42;;
40621;SDS011;26324;52.040;11.528;2023-06-01T12:48:50;4.20;;;2.20;;
40621;SDS011;26324;52.040;11.528;2023-06-01T12:51:19;3.75;;;2.08;;
40621;SDS011;26324;52.040;11.528;2023-06-01T12:56:15;3.95;;;1.77;;
40621;SDS011;26324;52.040;11.528;2023-06-01T12:58:43;4.95;;;2.38;;
40621;SDS011;26324;52.040;11.528;2023-06-01T13:01:10;5.28;;;1.80;;
40621;SDS011;26324;52.040;11.528;2023-06-01T13:03:38;4.00;;;1.80;;
40621;SDS011;26324;52.040;11.528;2023-06-01T13:06:05;3.92;;;1.65;;
40621;SDS011;26324;52.040;11.528;2023-06-01T13:08:33;4.00;;;1.73;;
40621;SDS011;26324;52.040;11.528;2023-06-01T13:11:00;5.15;;;1.70;;
40621;SDS011;26324;52.040;11.528;2023-06-01T13:13:27;3.78;;;1.98;;
40621;SDS011;26324;52.040;11.528;2023-06-01T13:15:55;5.95;;;2.00;;
40621;SDS011;26324;52.040;11.528;2023-06-01T13:18:22;4.53;;;1.50;;
40621;SDS011;26324;52.040;11.528;2023-06-01T13:20:50;3.97;;;1.55;;
40621;SDS011;26324;52.040;11.528;2023-06-01T13:23:17;6.45;;;1.85;;
40621;SDS011;26324;52.040;11.528;2023-06-01T13:25:45;3.53;;;1.90;;
40621;SDS011;26324;52.040;11.528;2023-06-01T13:28:12;2.47;;;1.45;;
40621;SDS011;26324;52.040;11.528;2023-06-01T13:30:40;2.58;;;1.45;;
40621;SDS011;26324;52.040;11.528;2023-06-01T13:33:08;2.42;;;1.45;;
40621;SDS011;26324;52.040;11.528;2023-06-01T13:35:36;5.63;;;1.67;;
40621;SDS011;26324;52.040;11.528;2023-06-01T13:38:03;3.72;;;1.73;;
40621;SDS011;26324;52.040;11.528;2023-06-01T13:40:30;2.53;;;1.30;;
40621;SDS011;26324;52.040;11.528;2023-06-01T13:42:59;4.30;;;1.52;;
40621;SDS011;26324;52.040;11.528;2023-06-01T13:45:27;3.15;;;1.60;;
40621;SDS011;26324;52.040;11.528;2023-06-01T13:47:54;6.60;;;2.13;;
40621;SDS011;26324;52.040;11.528;2023-06-01T13:50:22;3.25;;;1.70;;
40621;SDS011;26324;52.040;11.528;2023-06-01T13:52:50;2.35;;;1.58;;
40621;SDS011;26324;52.040;11.528;2023-06-01T13:55:19;2.58;;;1.50;;
40621;SDS011;26324;52.040;11.528;2023-06-01T13:57:49;4.32;;;1.80;;
40621;SDS011;26324;52.040;11.528;2023-06-01T14:00:17;3.95;;;1.40;;
40621;SDS011;26324;52.040;11.528;2023-06-01T14:02:47;3.13;;;1.33;;
40621;SDS011;26324;52.040;11.528;2023-06-01T14:05:14;4.82;;;1.50;;
40621;SDS011;26324;52.040;11.528;2023-06-01T14:07:49;4.43;;;1.80;;
40621;SDS011;26324;52.040;11.528;2023-06-01T14:10:16;3.85;;;1.90;;
40621;SDS011;26324;52.040;11.528;2023-06-01T14:12:44;3.95;;;1.80;;
40621;SDS011;26324;52.040;11.528;2023-06-01T14:15:12;4.43;;;2.00;;
40621;SDS011;26324;52.040;11.528;2023-06-01T14:17:39;5.38;;;1.77;;
40621;SDS011;26324;52.040;11.528;2023-06-01T14:20:06;2.78;;;1.70;;
40621;SDS011;26324;52.040;11.528;2023-06-01T14:25:02;3.72;;;1.55;;
40621;SDS011;26324;52.040;11.528;2023-06-01T14:27:30;1.75;;;1.23;;
40621;SDS011;26324;52.040;11.528;2023-06-01T14:29:58;3.17;;;1.48;;
40621;SDS011;26324;52.040;11.528;2023-06-01T14:32:27;3.25;;;1.75;;
40621;SDS011;26324;52.040;11.528;2023-06-01T14:34:55;3.08;;;1.60;;
40621;SDS011;26324;52.040;11.528;2023-06-01T14:37:22;4.13;;;1.90;;
40621;SDS011;26324;52.040;11.528;2023-06-01T14:39:51;3.78;;;2.05;;
40621;SDS011;26324;52.040;11.528;2023-06-01T14:42:19;5.13;;;1.83;;
40621;SDS011;26324;52.040;11.528;2023-06-01T14:44:46;4.07;;;1.55;;
40621;SDS011;26324;52.040;11.528;2023-06-01T14:47:31;3.20;;;1.63;;
40621;SDS011;26324;52.040;11.528;2023-06-01T14:49:58;2.97;;;2.20;;
40621;SDS011;26324;52.040;11.528;2023-06-01T14:52:26;3.30;;;1.90;;
40621;SDS011;26324;52.040;11.528;2023-06-01T14:54:53;3.10;;;1.52;;
40621;SDS011;26324;52.040;11.528;2023-06-01T14:57:21;2.70;;;1.55;;
40621;SDS011;26324;52.040;11.528;2023-06-01T14:59:48;2.63;;;1.58;;
40621;SDS011;26324;52.040;11.528;2023-06-01T15:02:30;3.13;;;1.63;;
40621;SDS011;26324;52.040;11.528;2023-06-01T15:04:58;2.42;;;1.67;;
40621;SDS011;26324;52.040;11.528;2023-06-01T15:07:25;2.58;;;1.90;;
40621;SDS011;26324;52.040;11.528;2023-06-01T15:09:53;3.17;;;1.50;;
40621;SDS011;26324;52.040;11.528;2023-06-01T15:12:20;3.50;;;1.58;;
40621;SDS011;26324;52.040;11.528;2023-06-01T15:14:48;2.38;;;1.48;;
40621;SDS011;26324;52.040;11.528;2023-06-01T15:17:17;3.20;;;1.80;;
40621;SDS011;26324;52.040;11.528;2023-06-01T15:22:12;4.55;;;1.75;;
40621;SDS011;26324;52.040;11.528;2023-06-01T15:24:40;6.28;;;1.77;;
40621;SDS011;26324;52.040;11.528;2023-06-01T15:27:08;3.45;;;1.80;;
40621;SDS011;26324;52.040;11.528;2023-06-01T15:29:35;4.80;;;1.60;;
40621;SDS011;26324;52.040;11.528;2023-06-01T15:32:03;2.92;;;1.92;;